Time;durP1;ratioP1;P1;durP2;ratioP2;P2;SDS_P1;SDS_P2;PMS_P1;PMS_P2;Temp;Humidity;BMP_temperature;BMP_pressure;BME280_temperature;BME280_humidity;BME280_pressure;Samples;Min_cycle;Max_cycle;Signal;HPM_P1;HPM_P2
2023/09/27 00:01:02;;;;;;;7.03;4.47;;;14.30;99.90;;;;;;5019196;28;20548;-64
2023/09/27 00:03:29;;;;;;;5.20;4.57;;;14.20;99.90;;;;;;5007077;28;20681;-64
2023/09/27 00:05:55;;;;;;;5.18;4.45;;;14.20;99.90;;;;;;5013998;28;20198;-64
2023/09/27 00:08:22;;;;;;;5.18;4.50;;;14.10;99.90;;;;;;5007145;28;20392;-64
2023/09/27 00:10:49;;;;;;;6.43;4.28;;;13.90;99.90;;;;;;5019090;28;20209;-64
2023/09/27 00:13:18;;;;;;;4.95;4.20;;;14.00;99.90;;;;;;4982799;28;20205;-64
2023/09/27 00:15:45;;;;;;;12.43;4.35;;;14.10;99.90;;;;;;5021718;28;20205;-64
2023/09/27 00:18:12;;;;;;;7.90;4.40;;;14.10;99.90;;;;;;5007677;28;20193;-64
2023/09/27 00:20:39;;;;;;;6.35;4.60;;;14.10;99.90;;;;;;5007528;28;20315;-64
2023/09/27 00:23:07;;;;;;;5.57;4.32;;;14.10;99.90;;;;;;5018849;28;20233;-64
2023/09/27 00:25:34;;;;;;;5.20;3.88;;;14.10;99.90;;;;;;5001714;28;20420;-64
2023/09/27 00:28:01;;;;;;;4.28;3.58;;;14.10;99.90;;;;;;5002021;28;20667;-64
2023/09/27 00:30:29;;;;;;;5.10;4.45;;;14.10;99.90;;;;;;4993249;28;20320;-64
2023/09/27 00:32:56;;;;;;;5.53;3.58;;;14.10;99.90;;;;;;5016512;28;20667;-64
2023/09/27 00:35:23;;;;;;;6.95;3.97;;;14.00;99.90;;;;;;5003129;28;20712;-64
2023/09/27 00:37:51;;;;;;;4.40;4.00;;;13.90;99.90;;;;;;5008900;28;20205;-64
2023/09/27 00:40:24;;;;;;;4.30;3.90;;;13.90;99.90;;;;;;5003372;28;20200;-64
2023/09/27 00:42:51;;;;;;;7.47;4.72;;;14.10;99.90;;;;;;5017321;28;20546;-64
2023/09/27 00:45:18;;;;;;;5.28;3.97;;;13.90;99.90;;;;;;4976958;28;20232;-64
2023/09/27 00:47:48;;;;;;;6.95;4.32;;;14.30;99.90;;;;;;5020935;28;20208;-64
2023/09/27 00:50:15;;;;;;;7.70;3.97;;;13.90;99.90;;;;;;5004965;28;20206;-64
2023/09/27 00:52:44;;;;;;;9.73;4.05;;;13.80;99.90;;;;;;5005536;28;20216;-64
2023/09/27 00:55:13;;;;;;;7.28;4.05;;;13.80;99.90;;;;;;5004840;28;20194;-64
2023/09/27 00:57:40;;;;;;;4.50;4.10;;;13.80;99.90;;;;;;5018853;28;20210;-64
2023/09/27 01:00:10;;;;;;;5.93;3.95;;;13.80;99.90;;;;;;4976343;28;20209;-64
2023/09/27 01:02:38;;;;;;;6.28;4.20;;;13.60;99.90;;;;;;5008098;28;20226;-64
2023/09/27 01:05:09;;;;;;;5.35;4.55;;;13.60;99.90;;;;;;5003166;28;20201;-64
2023/09/27 01:07:37;;;;;;;5.20;4.50;;;13.50;99.90;;;;;;4998043;28;20201;-64
2023/09/27 01:10:05;;;;;;;5.13;4.63;;;13.70;99.90;;;;;;5020037;28;20775;-64
2023/09/27 01:12:32;;;;;;;7.50;4.97;;;13.70;99.90;;;;;;5003615;28;20201;-64
2023/09/27 01:14:59;;;;;;;5.53;4.43;;;13.60;99.90;;;;;;4980078;28;21370;-64
2023/09/27 01:17:26;;;;;;;6.80;5.10;;;13.70;99.90;;;;;;5019687;28;20197;-64
2023/09/27 01:19:52;;;;;;;6.38;5.28;;;13.70;99.90;;;;;;5003991;28;20939;-64
2023/09/27 01:22:21;;;;;;;10.35;4.93;;;13.70;99.90;;;;;;5008917;28;20966;-64
2023/09/27 01:24:51;;;;;;;10.73;4.95;;;13.60;99.90;;;;;;5010583;28;20624;-64
2023/09/27 01:27:19;;;;;;;7.80;5.22;;;13.50;99.90;;;;;;5007293;28;20243;-64
2023/09/27 01:29:46;;;;;;;6.68;4.93;;;13.60;99.90;;;;;;5010965;28;20419;-64
2023/09/27 01:32:12;;;;;;;7.72;4.90;;;13.60;99.90;;;;;;4980317;28;20202;-64
2023/09/27 01:34:39;;;;;;;9.10;5.47;;;13.50;99.90;;;;;;5000472;28;20198;-64
2023/09/27 01:37:07;;;;;;;8.38;5.10;;;13.50;99.90;;;;;;5018157;28;20272;-64
2023/09/27 01:39:34;;;;;;;6.35;4.95;;;13.60;99.90;;;;;;5000272;28;20198;-64
2023/09/27 01:42:02;;;;;;;8.75;5.10;;;13.50;99.90;;;;;;5008779;28;20226;-64
2023/09/27 01:44:29;;;;;;;8.85;5.45;;;13.40;99.90;;;;;;5015840;28;20206;-64
2023/09/27 01:46:56;;;;;;;9.63;5.03;;;13.40;99.90;;;;;;4975609;28;20220;-64
2023/09/27 01:49:23;;;;;;;7.93;5.38;;;13.40;99.90;;;;;;5016484;28;20210;-64
2023/09/27 01:51:50;;;;;;;5.88;4.90;;;13.40;99.90;;;;;;5015826;28;20359;-64
2023/09/27 01:54:16;;;;;;;8.25;5.22;;;13.30;99.90;;;;;;5006235;28;20837;-63
2023/09/27 01:56:43;;;;;;;5.72;4.82;;;13.30;99.90;;;;;;5017391;28;20220;-63
2023/09/27 01:59:11;;;;;;;8.05;5.57;;;13.30;99.90;;;;;;5008853;28;20201;-63
2023/09/27 02:01:38;;;;;;;8.85;5.22;;;13.10;99.90;;;;;;4976060;28;26224;-64
2023/09/27 02:04:05;;;;;;;8.40;5.15;;;13.20;99.90;;;;;;5006655;28;20205;-63
2023/09/27 02:06:32;;;;;;;7.13;5.15;;;13.20;99.90;;;;;;5004293;28;20201;-63
2023/09/27 02:08:58;;;;;;;15.18;5.78;;;13.20;99.90;;;;;;5010953;28;20586;-63
2023/09/27 02:11:26;;;;;;;9.05;5.55;;;13.20;99.90;;;;;;5014784;28;20208;-63
2023/09/27 02:13:52;;;;;;;6.10;5.10;;;13.30;99.90;;;;;;5002035;28;20963;-64
2023/09/27 02:16:21;;;;;;;5.90;5.13;;;13.30;99.90;;;;;;5010535;28;20216;-63
2023/09/27 02:18:49;;;;;;;8.73;5.35;;;13.40;99.90;;;;;;4977742;28;20301;-63
2023/09/27 02:21:15;;;;;;;8.10;6.28;;;13.40;99.90;;;;;;5000916;28;20229;-64
2023/09/27 02:23:42;;;;;;;8.95;6.10;;;13.40;99.90;;;;;;4991139;28;20235;-64
2023/09/27 02:26:10;;;;;;;7.30;5.88;;;13.50;99.90;;;;;;5016486;28;20198;-63
2023/09/27 02:28:37;;;;;;;7.57;5.93;;;13.30;99.90;;;;;;5003828;28;20208;-63
2023/09/27 02:31:09;;;;;;;7.78;5.63;;;13.40;99.90;;;;;;5013383;28;20434;-63
2023/09/27 02:33:38;;;;;;;6.82;5.85;;;13.40;99.90;;;;;;4974405;28;20206;-64
2023/09/27 02:36:05;;;;;;;9.63;5.72;;;13.40;99.90;;;;;;5003310;28;20202;-63
2023/09/27 02:38:33;;;;;;;8.20;5.90;;;13.30;99.90;;;;;;5004308;28;20689;-63
2023/09/27 02:41:00;;;;;;;6.13;5.53;;;13.30;99.90;;;;;;5010002;28;20408;-63
2023/09/27 02:43:26;;;;;;;7.47;5.78;;;13.20;99.90;;;;;;5011490;28;20233;-63
2023/09/27 02:45:53;;;;;;;7.47;5.63;;;13.20;99.90;;;;;;4992495;28;20206;-63
2023/09/27 02:48:20;;;;;;;6.75;5.95;;;13.20;99.90;;;;;;5011614;28;20205;-63
2023/09/27 02:50:49;;;;;;;7.28;6.05;;;13.10;99.90;;;;;;4971579;28;20224;-64
2023/09/27 02:53:17;;;;;;;8.02;6.10;;;13.60;99.90;;;;;;5006349;28;20202;-64
2023/09/27 02:55:44;;;;;;;8.52;5.85;;;13.30;99.90;;;;;;5012906;28;20199;-63
2023/09/27 02:58:10;;;;;;;9.77;5.82;;;13.50;99.90;;;;;;5017835;28;20683;-63
2023/09/27 03:00:37;;;;;;;6.97;5.80;;;13.30;99.90;;;;;;5007417;28;20197;-63
2023/09/27 03:03:07;;;;;;;8.85;6.43;;;13.30;99.90;;;;;;5017491;28;20217;-63
2023/09/27 03:05:36;;;;;;;7.55;5.80;;;13.30;99.90;;;;;;4976178;28;20707;-64
2023/09/27 03:08:05;;;;;;;6.22;5.50;;;13.20;99.90;;;;;;5003485;28;20202;-64
2023/09/27 03:10:32;;;;;;;8.52;5.50;;;13.20;99.90;;;;;;5007826;28;20537;-63
2023/09/27 03:12:59;;;;;;;6.07;5.47;;;13.10;99.90;;;;;;5014397;28;20899;-63
2023/09/27 03:15:26;;;;;;;8.23;5.78;;;13.00;99.90;;;;;;4997483;28;20781;-63
2023/09/27 03:17:53;;;;;;;7.88;5.88;;;13.00;99.90;;;;;;5017844;28;20580;-63
2023/09/27 03:20:21;;;;;;;7.35;5.35;;;12.90;99.90;;;;;;4980144;28;21127;-63
2023/09/27 03:22:48;;;;;;;7.45;5.95;;;13.00;99.90;;;;;;5005390;28;20307;-64
2023/09/27 03:25:17;;;;;;;6.38;5.68;;;12.90;99.90;;;;;;5004349;28;20221;-63
2023/09/27 03:27:44;;;;;;;6.30;5.63;;;13.20;99.90;;;;;;5012900;28;20197;-63
2023/09/27 03:30:11;;;;;;;8.82;6.40;;;12.90;99.90;;;;;;5010921;28;20221;-63
2023/09/27 03:32:38;;;;;;;7.53;5.93;;;12.90;99.90;;;;;;5006037;28;20205;-63
2023/09/27 03:35:07;;;;;;;6.72;6.00;;;12.90;99.90;;;;;;5012815;28;20197;-63
2023/09/27 03:37:34;;;;;;;7.22;6.28;;;12.90;99.90;;;;;;4954741;28;20221;-63
2023/09/27 03:40:04;;;;;;;8.88;6.18;;;12.90;99.90;;;;;;4984215;28;20332;-64
2023/09/27 03:42:34;;;;;;;10.13;6.53;;;13.00;99.90;;;;;;5000281;28;20237;-63
2023/09/27 03:45:00;;;;;;;7.32;6.20;;;13.00;99.90;;;;;;4997436;28;20202;-64
2023/09/27 03:47:29;;;;;;;10.13;6.43;;;13.10;99.90;;;;;;4999042;28;20228;-64
2023/09/27 03:49:56;;;;;;;9.38;6.70;;;13.00;99.90;;;;;;5005679;28;20228;-63
2023/09/27 03:52:23;;;;;;;7.57;6.47;;;13.20;99.90;;;;;;4965109;28;20209;-63
2023/09/27 03:54:50;;;;;;;9.45;5.78;;;13.90;99.90;;;;;;4998183;28;20236;-63
2023/09/27 03:57:17;;;;;;;9.23;5.85;;;13.10;99.90;;;;;;5017321;28;20209;-64
2023/09/27 03:59:45;;;;;;;7.38;6.07;;;13.10;99.90;;;;;;5016323;28;20200;-63
2023/09/27 04:02:12;;;;;;;10.00;6.82;;;13.10;99.90;;;;;;5001388;28;20201;-64
2023/09/27 04:04:39;;;;;;;10.73;6.78;;;13.10;99.90;;;;;;5011587;28;20677;-63
2023/09/27 04:07:06;;;;;;;6.85;6.03;;;13.20;99.90;;;;;;5018848;28;20580;-63
2023/09/27 04:09:33;;;;;;;7.95;6.78;;;12.90;99.90;;;;;;4974966;28;20213;-63
2023/09/27 04:12:00;;;;;;;8.70;6.30;;;12.90;99.90;;;;;;5006837;28;20213;-63
2023/09/27 04:14:26;;;;;;;8.23;6.43;;;12.90;99.90;;;;;;5021880;28;20201;-63
2023/09/27 04:16:59;;;;;;;11.77;6.43;;;12.80;99.90;;;;;;5002880;28;20749;-63
2023/09/27 04:19:26;;;;;;;6.90;5.95;;;12.80;99.90;;;;;;5017394;28;20280;-63
2023/09/27 04:21:53;;;;;;;8.00;5.95;;;12.80;99.90;;;;;;5021919;28;20222;-63
2023/09/27 04:24:19;;;;;;;12.52;7.10;;;12.80;99.90;;;;;;4980812;28;20225;-63
2023/09/27 04:26:46;;;;;;;7.80;6.88;;;13.00;99.90;;;;;;4994989;28;20929;-63
2023/09/27 04:29:13;;;;;;;8.52;6.45;;;13.00;99.90;;;;;;5013982;28;20332;-63
2023/09/27 04:31:40;;;;;;;10.75;6.72;;;12.80;99.90;;;;;;4999383;28;20233;-63
2023/09/27 04:34:08;;;;;;;11.07;7.75;;;12.80;99.90;;;;;;5001879;28;20225;-64
2023/09/27 04:36:35;;;;;;;8.38;7.10;;;12.50;99.90;;;;;;4998977;28;20221;-63
2023/09/27 04:39:05;;;;;;;9.70;7.63;;;12.80;99.90;;;;;;4981195;28;20204;-63
2023/09/27 04:41:32;;;;;;;14.32;7.47;;;12.90;99.90;;;;;;4988858;28;20884;-64
2023/09/27 04:43:59;;;;;;;9.55;7.90;;;12.90;99.90;;;;;;5015024;28;20240;-63
2023/09/27 04:46:26;;;;;;;10.85;8.18;;;12.90;99.90;;;;;;5009050;28;20221;-64
2023/09/27 04:48:53;;;;;;;9.65;7.97;;;12.90;99.90;;;;;;5004769;28;20890;-64
2023/09/27 04:51:21;;;;;;;9.57;7.25;;;13.20;99.90;;;;;;5015587;28;20286;-63
2023/09/27 04:53:48;;;;;;;9.82;7.50;;;13.00;99.90;;;;;;5011156;28;20204;-63
2023/09/27 04:56:15;;;;;;;16.27;8.00;;;13.00;99.90;;;;;;4973833;28;20221;-63
2023/09/27 04:58:42;;;;;;;9.20;7.70;;;13.00;99.90;;;;;;4997100;28;20217;-63
2023/09/27 05:01:09;;;;;;;8.75;7.85;;;13.00;99.90;;;;;;4988503;28;20221;-63
2023/09/27 05:03:36;;;;;;;10.95;8.25;;;13.10;99.90;;;;;;4991040;28;20230;-63
2023/09/27 05:06:03;;;;;;;9.32;7.82;;;13.10;99.90;;;;;;5008259;28;20225;-64
2023/09/27 05:08:31;;;;;;;10.75;8.65;;;13.10;99.90;;;;;;5003867;28;20575;-63
2023/09/27 05:10:58;;;;;;;9.40;7.93;;;13.10;99.90;;;;;;4982475;28;20210;-63
2023/09/27 05:13:25;;;;;;;9.95;7.35;;;13.10;99.90;;;;;;5010275;28;20694;-63
2023/09/27 05:15:52;;;;;;;8.85;6.93;;;13.00;99.90;;;;;;5009724;28;20201;-63
2023/09/27 05:18:19;;;;;;;9.82;7.68;;;12.70;99.90;;;;;;5010093;28;20205;-63
2023/09/27 05:20:46;;;;;;;8.90;6.95;;;12.70;99.90;;;;;;5023475;28;20887;-63
2023/09/27 05:23:13;;;;;;;9.68;7.60;;;12.70;99.90;;;;;;5006565;28;20253;-63
2023/09/27 05:25:42;;;;;;;10.63;7.40;;;12.50;99.90;;;;;;4990628;28;20347;-64
2023/09/27 05:28:09;;;;;;;12.38;7.95;;;12.60;99.90;;;;;;5022633;28;20209;-63
2023/09/27 05:30:36;;;;;;;13.02;8.40;;;12.70;99.90;;;;;;5006998;28;20347;-63
2023/09/27 05:33:04;;;;;;;14.27;8.32;;;12.60;99.90;;;;;;5019619;28;20206;-63
2023/09/27 05:35:31;;;;;;;10.20;8.23;;;12.60;99.90;;;;;;5015544;28;20343;-63
2023/09/27 05:37:58;;;;;;;9.88;8.10;;;12.60;99.90;;;;;;5016947;28;20228;-63
2023/09/27 05:40:25;;;;;;;10.77;8.20;;;12.50;99.90;;;;;;5017196;28;20217;-63
2023/09/27 05:42:53;;;;;;;9.52;8.52;;;12.50;99.90;;;;;;4987059;28;20216;-63
2023/09/27 05:45:20;;;;;;;8.32;7.35;;;12.90;99.90;;;;;;4998850;28;20229;-64
2023/09/27 05:47:47;;;;;;;10.38;8.13;;;12.80;99.90;;;;;;5001201;28;20225;-63
2023/09/27 05:50:14;;;;;;;14.13;7.93;;;12.70;99.90;;;;;;5011288;28;20214;-63
2023/09/27 05:52:43;;;;;;;12.18;8.38;;;12.70;99.90;;;;;;5020175;28;20560;-63
2023/09/27 05:55:11;;;;;;;12.30;8.43;;;12.70;99.90;;;;;;5019013;28;20939;-63
2023/09/27 05:57:38;;;;;;;18.55;8.88;;;12.80;99.90;;;;;;4980632;28;20212;-63
2023/09/27 06:00:15;;;;;;;14.85;8.65;;;12.90;99.90;;;;;;5007612;28;20902;-63
2023/09/27 06:02:43;;;;;;;13.82;9.73;;;13.00;99.90;;;;;;5008116;28;20212;-63
2023/09/27 06:05:11;;;;;;;10.18;8.35;;;13.00;99.90;;;;;;5018425;28;20321;-63
2023/09/27 06:07:38;;;;;;;11.82;8.80;;;13.10;99.90;;;;;;5023374;28;20260;-63
2023/09/27 06:10:06;;;;;;;20.13;9.30;;;13.10;99.90;;;;;;5023339;28;21688;-63
2023/09/27 06:12:33;;;;;;;11.88;9.02;;;13.10;99.90;;;;;;5028900;28;20205;-63
2023/09/27 06:15:00;;;;;;;11.48;8.98;;;13.50;99.90;;;;;;4971387;28;20233;-63
2023/09/27 06:17:28;;;;;;;11.07;8.82;;;13.30;99.90;;;;;;5012934;28;20197;-63
2023/09/27 06:19:55;;;;;;;12.00;8.77;;;13.20;99.90;;;;;;5015640;28;20288;-63
2023/09/27 06:22:23;;;;;;;12.15;9.35;;;13.20;99.90;;;;;;5019036;28;20707;-63
2023/09/27 06:24:50;;;;;;;13.13;8.93;;;13.30;99.90;;;;;;5017859;28;20819;-63
2023/09/27 06:27:17;;;;;;;11.70;8.60;;;13.30;99.90;;;;;;5023410;28;20194;-63
2023/09/27 06:29:44;;;;;;;12.82;8.23;;;13.20;99.90;;;;;;4992157;28;20209;-63
2023/09/27 06:32:11;;;;;;;9.43;8.45;;;13.20;99.90;;;;;;5009800;28;20197;-63
2023/09/27 06:34:39;;;;;;;11.35;8.32;;;13.30;99.90;;;;;;5021429;28;20532;-63
2023/09/27 06:37:07;;;;;;;13.43;9.40;;;13.30;99.90;;;;;;5026393;28;20573;-63
2023/09/27 06:39:34;;;;;;;10.82;9.25;;;13.40;99.90;;;;;;5029137;28;20197;-63
2023/09/27 06:42:02;;;;;;;14.45;9.48;;;13.40;99.90;;;;;;5027247;28;20298;-63
2023/09/27 06:44:29;;;;;;;11.23;10.02;;;13.50;99.90;;;;;;4989107;28;20916;-63
2023/09/27 06:46:56;;;;;;;11.63;9.82;;;13.50;99.90;;;;;;5027276;28;20201;-63
2023/09/27 06:49:23;;;;;;;12.48;9.20;;;13.60;99.90;;;;;;5009078;28;20209;-63
2023/09/27 06:51:53;;;;;;;14.82;9.70;;;13.70;99.90;;;;;;5028673;28;20523;-63
2023/09/27 06:54:21;;;;;;;13.40;9.48;;;13.70;99.90;;;;;;5017908;28;20205;-63
2023/09/27 06:56:48;;;;;;;12.60;9.75;;;13.90;99.90;;;;;;5017704;28;20215;-63
2023/09/27 06:59:15;;;;;;;20.10;10.00;;;;;;;;;;4979046;28;20221;-63
2023/09/27 07:01:42;;;;;;;9.98;8.57;;;14.00;99.90;;;;;;5018061;28;20213;-63
2023/09/27 07:04:09;;;;;;;9.73;8.82;;;14.10;99.90;;;;;;5012573;28;20240;-63
2023/09/27 07:06:36;;;;;;;12.52;9.63;;;14.20;99.90;;;;;;5023878;28;20204;-63
2023/09/27 07:09:05;;;;;;;13.00;9.73;;;14.20;99.90;;;;;;5025686;28;20198;-63
2023/09/27 07:11:33;;;;;;;14.63;10.30;;;14.30;99.90;;;;;;5019618;28;20226;-63
2023/09/27 07:14:00;;;;;;;14.55;9.23;;;14.30;99.90;;;;;;5025427;28;20221;-63
2023/09/27 07:16:27;;;;;;;12.88;10.10;;;14.40;99.90;;;;;;4990851;28;20279;-63
2023/09/27 07:18:54;;;;;;;13.25;10.50;;;14.50;99.90;;;;;;5006657;28;20777;-63
2023/09/27 07:21:22;;;;;;;15.32;10.40;;;14.60;99.90;;;;;;5024946;28;20228;-63
2023/09/27 07:23:50;;;;;;;12.90;10.40;;;14.60;99.90;;;;;;5022494;28;20229;-63
2023/09/27 07:26:18;;;;;;;15.88;10.25;;;14.60;99.90;;;;;;5028675;28;20202;-64
2023/09/27 07:28:46;;;;;;;15.00;10.48;;;14.80;99.90;;;;;;5024519;28;20206;-63
2023/09/27 07:31:14;;;;;;;15.13;10.85;;;14.80;99.90;;;;;;4984836;28;20486;-63
2023/09/27 07:33:41;;;;;;;16.02;10.82;;;14.80;99.90;;;;;;5006602;28;20209;-63
2023/09/27 07:36:09;;;;;;;14.15;11.77;;;14.90;99.90;;;;;;5018647;28;20514;-63
2023/09/27 07:38:37;;;;;;;18.77;12.27;;;15.00;99.90;;;;;;5027801;28;20209;-63
2023/09/27 07:41:04;;;;;;;16.50;12.38;;;15.20;99.90;;;;;;5019956;28;20208;-63
2023/09/27 07:43:32;;;;;;;14.18;12.35;;;15.20;99.90;;;;;;5027566;28;20202;-63
2023/09/27 07:46:01;;;;;;;13.82;10.95;;;15.30;99.90;;;;;;4982115;28;20206;-63
2023/09/27 07:48:31;;;;;;;15.80;11.90;;;15.30;99.90;;;;;;5004396;28;20216;-63
2023/09/27 07:50:58;;;;;;;15.63;12.48;;;15.30;99.90;;;;;;5018279;28;20268;-63
2023/09/27 07:53:25;;;;;;;15.95;12.70;;;15.50;99.90;;;;;;5016704;28;20330;-64
2023/09/27 07:55:53;;;;;;;16.58;12.27;;;15.60;99.90;;;;;;5018380;28;20201;-64
2023/09/27 07:58:19;;;;;;;17.38;12.82;;;15.60;99.90;;;;;;5025754;28;20326;-63
2023/09/27 08:00:48;;;;;;;15.93;12.55;;;15.70;99.90;;;;;;5018922;28;20193;-63
2023/09/27 08:03:15;;;;;;;16.88;13.02;;;15.50;99.90;;;;;;4996093;28;20550;-63
2023/09/27 08:05:45;;;;;;;16.77;13.45;;;15.80;99.90;;;;;;5008946;28;20245;-63
2023/09/27 08:08:12;;;;;;;14.30;12.57;;;15.80;99.90;;;;;;5012614;28;20792;-63
2023/09/27 08:10:43;;;;;;;15.48;12.73;;;15.90;99.90;;;;;;5030195;28;20197;-63
2023/09/27 08:13:12;;;;;;;17.52;13.18;;;16.10;99.90;;;;;;5010412;28;20946;-63
2023/09/27 08:15:39;;;;;;;17.92;12.43;;;16.10;99.90;;;;;;5026028;28;20924;-63
2023/09/27 08:18:08;;;;;;;17.20;11.90;;;16.10;99.90;;;;;;4983351;28;20209;-64
2023/09/27 08:20:34;;;;;;;14.13;11.40;;;16.20;99.90;;;;;;5010507;28;20208;-64
2023/09/27 08:23:01;;;;;;;13.63;11.82;;;16.20;99.90;;;;;;5020901;28;20233;-64
2023/09/27 08:25:29;;;;;;;16.40;11.32;;;16.30;99.90;;;;;;5012481;28;20371;-63
2023/09/27 08:27:56;;;;;;;15.73;11.60;;;16.30;99.90;;;;;;5019393;28;20200;-63
2023/09/27 08:30:23;;;;;;;14.85;12.20;;;16.40;99.90;;;;;;5018514;28;20198;-64
2023/09/27 08:32:51;;;;;;;14.65;12.02;;;16.50;99.90;;;;;;4978284;28;20225;-64
2023/09/27 08:35:20;;;;;;;17.60;11.05;;;16.50;99.90;;;;;;5015681;28;20257;-64
2023/09/27 08:37:47;;;;;;;18.55;11.43;;;16.50;99.90;;;;;;5021994;28;20221;-63
2023/09/27 08:40:15;;;;;;;13.98;11.05;;;16.70;99.90;;;;;;5016803;28;20580;-64
2023/09/27 08:42:42;;;;;;;13.55;10.95;;;16.70;99.90;;;;;;5011800;28;20696;-63
2023/09/27 08:45:13;;;;;;;16.40;10.45;;;16.80;99.90;;;;;;5004564;28;20221;-63
2023/09/27 08:47:44;;;;;;;12.80;10.32;;;16.80;99.90;;;;;;5023272;28;20201;-63
2023/09/27 08:50:13;;;;;;;14.52;9.82;;;16.80;99.90;;;;;;4979159;28;21722;-63
2023/09/27 08:52:46;;;;;;;13.40;10.05;;;16.90;99.90;;;;;;5020232;28;20334;-63
2023/09/27 08:55:13;;;;;;;12.93;10.48;;;17.00;99.90;;;;;;5010524;28;21596;-63
2023/09/27 08:57:45;;;;;;;12.00;9.00;;;17.00;99.90;;;;;;5009360;28;20198;-64
2023/09/27 09:00:14;;;;;;;13.15;10.30;;;17.00;99.90;;;;;;5019514;28;20198;-64
2023/09/27 09:02:43;;;;;;;12.80;9.68;;;17.00;99.90;;;;;;5022473;28;20209;-63
2023/09/27 09:05:12;;;;;;;13.88;9.32;;;17.00;99.90;;;;;;4974925;28;21245;-64
2023/09/27 09:07:42;;;;;;;11.98;9.80;;;17.00;99.90;;;;;;5013796;28;20221;-63
2023/09/27 09:10:13;;;;;;;15.35;9.88;;;17.10;99.90;;;;;;5007933;28;20447;-63
2023/09/27 09:12:41;;;;;;;12.98;10.02;;;17.10;99.90;;;;;;5018092;28;20691;-64
2023/09/27 09:15:14;;;;;;;12.98;9.60;;;17.20;99.90;;;;;;5011354;28;20488;-64
2023/09/27 09:17:47;;;;;;;17.73;10.65;;;17.20;99.90;;;;;;5004650;28;20308;-64
2023/09/27 09:20:23;;;;;;;12.60;9.93;;;17.20;99.90;;;;;;4963133;28;20977;-64
2023/09/27 09:22:53;;;;;;;11.98;9.35;;;17.30;99.90;;;;;;5001765;28;20228;-64
2023/09/27 09:25:22;;;;;;;11.80;9.15;;;17.30;99.90;;;;;;5016807;28;20998;-63
2023/09/27 09:28:03;;;;;;;11.55;9.75;;;17.30;99.90;;;;;;5010001;28;20706;-64
2023/09/27 09:30:35;;;;;;;16.38;12.25;;;17.40;99.90;;;;;;5021645;28;20198;-64
2023/09/27 09:33:03;;;;;;;16.60;11.60;;;17.50;99.90;;;;;;5015954;28;20212;-64
2023/09/27 09:35:31;;;;;;;15.68;12.90;;;17.40;99.90;;;;;;4986539;28;20985;-64
2023/09/27 09:38:00;;;;;;;16.02;12.15;;;17.50;99.90;;;;;;5018432;28;20198;-64
2023/09/27 09:40:27;;;;;;;17.67;12.90;;;17.50;99.90;;;;;;5018901;28;20244;-64
2023/09/27 09:42:53;;;;;;;18.02;13.05;;;17.60;99.90;;;;;;5017583;28;20205;-64
2023/09/27 09:45:20;;;;;;;15.80;13.52;;;17.50;99.90;;;;;;5017060;28;20248;-64
2023/09/27 09:47:47;;;;;;;17.10;13.05;;;17.60;99.90;;;;;;5022412;28;20197;-64
2023/09/27 09:50:18;;;;;;;16.02;12.75;;;17.40;99.90;;;;;;4985400;28;20948;-64
2023/09/27 09:52:53;;;;;;;15.73;12.30;;;17.70;99.90;;;;;;5019904;28;20225;-64
2023/09/27 09:55:23;;;;;;;20.08;13.38;;;17.60;99.90;;;;;;5009340;28;20365;-64
2023/09/27 09:57:56;;;;;;;18.42;13.48;;;17.60;99.90;;;;;;5020761;28;20237;-64
2023/09/27 10:00:27;;;;;;;20.65;14.15;;;17.70;99.90;;;;;;5007120;28;20205;-64
2023/09/27 10:03:00;;;;;;;14.45;12.38;;;17.80;99.90;;;;;;5003200;28;20237;-64
2023/09/27 10:05:34;;;;;;;17.70;12.05;;;17.70;99.90;;;;;;5021178;28;20221;-63
2023/09/27 10:08:02;;;;;;;14.63;11.73;;;17.80;99.90;;;;;;4982560;28;20212;-64
2023/09/27 10:10:31;;;;;;;13.70;11.32;;;17.80;99.90;;;;;;5024806;28;20198;-64
2023/09/27 10:12:59;;;;;;;17.13;11.40;;;18.20;99.90;;;;;;5018101;28;20197;-64
2023/09/27 10:15:26;;;;;;;12.38;9.75;;;17.90;99.90;;;;;;5014087;28;20210;-64
2023/09/27 10:17:53;;;;;;;17.15;9.60;;;18.00;99.90;;;;;;5008870;28;20205;-64
2023/09/27 10:20:22;;;;;;;12.05;10.52;;;18.00;99.90;;;;;;5019056;28;20271;-64
2023/09/27 10:22:52;;;;;;;11.55;9.88;;;18.00;99.90;;;;;;4985896;28;20224;-64
2023/09/27 10:25:35;;;;;;;9.48;8.40;;;18.00;99.90;;;;;;5020114;28;20221;-64
2023/09/27 10:28:06;;;;;;;12.45;8.82;;;19.10;99.90;;;;;;5019335;28;20228;-64
2023/09/27 10:31:12;;;;;;;11.48;8.80;;;18.10;99.90;;;;;;5010587;28;20193;-64
2023/09/27 10:33:39;;;;;;;9.55;7.55;;;18.20;99.90;;;;;;5025076;28;20300;-63
2023/09/27 10:36:29;;;;;;;8.65;7.25;;;18.70;99.90;;;;;;5017428;28;20411;-64
2023/09/27 10:39:05;;;;;;;7.05;6.22;;;18.40;99.90;;;;;;4982547;28;20691;-64
2023/09/27 10:41:47;;;;;;;9.32;6.30;;;18.40;99.90;;;;;;5025744;28;20207;-64
2023/09/27 10:44:26;;;;;;;9.50;5.88;;;18.30;99.90;;;;;;5017971;28;20248;-64
2023/09/27 10:46:53;;;;;;;9.93;4.80;;;18.40;99.90;;;;;;5007330;28;20197;-64
2023/09/27 10:49:21;;;;;;;5.70;4.75;;;18.40;99.90;;;;;;5012033;28;20327;-64
2023/09/27 10:51:47;;;;;;;7.85;5.28;;;18.50;99.90;;;;;;5026077;28;20979;-64
2023/09/27 10:54:14;;;;;;;6.45;4.60;;;18.50;99.90;;;;;;4967909;28;20224;-64
2023/09/27 10:56:44;;;;;;;7.78;5.07;;;18.70;99.90;;;;;;5024363;28;20204;-64
2023/09/27 10:59:13;;;;;;;8.05;5.20;;;18.70;99.90;;;;;;5018910;28;20201;-64
2023/09/27 11:01:44;;;;;;;7.03;5.20;;;18.70;99.90;;;;;;5022760;28;20676;-64
2023/09/27 11:04:12;;;;;;;9.57;5.18;;;18.80;99.90;;;;;;5003508;28;20276;-64
2023/09/27 11:06:39;;;;;;;7.78;5.38;;;18.80;99.90;;;;;;5020238;28;20226;-64
2023/09/27 11:09:07;;;;;;;7.20;5.00;;;18.90;99.90;;;;;;4981148;28;20411;-64
2023/09/27 11:11:34;;;;;;;10.10;4.82;;;18.90;99.90;;;;;;5020732;28;20205;-64
2023/09/27 11:14:01;;;;;;;6.78;5.60;;;19.10;99.90;;;;;;5016527;28;20198;-64
2023/09/27 11:16:30;;;;;;;10.13;5.78;;;19.20;99.90;;;;;;5004264;28;20225;-64
2023/09/27 11:18:57;;;;;;;8.52;5.22;;;19.20;99.90;;;;;;5001103;28;20260;-64
2023/09/27 11:21:25;;;;;;;6.45;4.50;;;19.20;99.90;;;;;;4993739;28;20237;-64
2023/09/27 11:23:57;;;;;;;6.18;5.22;;;19.40;99.90;;;;;;4998552;28;20197;-64
2023/09/27 11:26:24;;;;;;;5.78;4.88;;;19.40;99.90;;;;;;5003652;28;20218;-64
2023/09/27 11:28:59;;;;;;;5.20;4.70;;;19.20;99.90;;;;;;5022378;28;20247;-64
2023/09/27 11:31:27;;;;;;;10.10;5.40;;;19.20;99.90;;;;;;5006712;28;20259;-64
2023/09/27 11:34:11;;;;;;;6.22;4.38;;;19.30;99.90;;;;;;5004365;28;21105;-64
2023/09/27 11:36:42;;;;;;;11.15;6.82;;;19.30;99.90;;;;;;5009245;28;20834;-64
2023/09/27 11:39:09;;;;;;;7.97;5.43;;;20.00;99.90;;;;;;5011003;28;20198;-64
2023/09/27 11:41:36;;;;;;;11.32;8.48;;;19.30;99.90;;;;;;4980233;28;20293;-64
2023/09/27 11:44:16;;;;;;;12.90;8.95;;;18.80;99.90;;;;;;5002841;28;20218;-64
2023/09/27 11:46:43;;;;;;;10.30;8.80;;;19.60;99.90;;;;;;5000205;28;20229;-64
2023/09/27 11:49:11;;;;;;;15.82;9.45;;;19.60;99.90;;;;;;5005519;28;20232;-64
2023/09/27 11:51:38;;;;;;;9.18;7.85;;;19.60;99.90;;;;;;5015733;28;20225;-64
2023/09/27 11:54:06;;;;;;;11.00;8.38;;;19.60;99.90;;;;;;5006419;28;20209;-64
2023/09/27 11:56:34;;;;;;;9.85;8.27;;;19.60;99.90;;;;;;4979835;28;20218;-64
2023/09/27 11:59:02;;;;;;;9.95;7.75;;;19.70;99.90;;;;;;5025367;28;20192;-64
2023/09/27 12:01:29;;;;;;;14.18;8.10;;;19.70;99.90;;;;;;5013072;28;20381;-64
2023/09/27 12:03:56;;;;;;;6.05;4.95;;;19.70;99.90;;;;;;5025009;28;20683;-64
2023/09/27 12:06:25;;;;;;;5.47;3.95;;;19.80;99.90;;;;;;5006007;28;21201;-64
2023/09/27 12:08:54;;;;;;;7.80;4.55;;;19.80;99.90;;;;;;4994794;28;21423;-64
2023/09/27 12:11:20;;;;;;;6.30;4.13;;;19.70;99.90;;;;;;4983260;28;20433;-64
2023/09/27 12:13:47;;;;;;;6.35;3.88;;;19.70;99.90;;;;;;5015290;28;20210;-64
2023/09/27 12:16:17;;;;;;;5.07;3.63;;;19.80;99.90;;;;;;5011607;28;20657;-64
2023/09/27 12:18:44;;;;;;;5.47;4.13;;;19.80;99.90;;;;;;5025291;28;20201;-64
2023/09/27 12:21:10;;;;;;;3.40;3.00;;;19.90;99.90;;;;;;5001429;28;20233;-64
2023/09/27 12:23:38;;;;;;;4.85;3.05;;;19.90;99.90;;;;;;5010565;28;20197;-64
2023/09/27 12:26:05;;;;;;;4.43;2.55;;;20.00;99.90;;;;;;5018361;28;20726;-64
2023/09/27 12:28:36;;;;;;;3.20;2.90;;;20.00;99.90;;;;;;4978408;28;20236;-64
2023/09/27 12:31:05;;;;;;;4.07;3.13;;;20.10;99.90;;;;;;5017355;28;20317;-64
2023/09/27 12:33:31;;;;;;;4.38;3.08;;;20.10;99.90;;;;;;5017611;28;20202;-64
2023/09/27 12:35:58;;;;;;;4.07;3.05;;;20.00;99.90;;;;;;5014536;28;20338;-64
2023/09/27 12:38:26;;;;;;;7.20;4.03;;;20.00;99.90;;;;;;4999205;28;20197;-64
2023/09/27 12:40:54;;;;;;;5.15;4.20;;;19.90;99.90;;;;;;5008359;28;20213;-64
2023/09/27 12:43:21;;;;;;;4.13;3.42;;;19.90;99.90;;;;;;4958399;28;20217;-64
2023/09/27 12:45:48;;;;;;;4.78;4.00;;;19.80;99.90;;;;;;4994733;28;20225;-64